Decoded Metar for LFCR (RODEZ in FRANCE) (IATA:RDZ) | Meteo·Mobile Aviation Weather
aviador You're here:

LFCR Decoded Metar

RODEZ in FRANCE
Report Time2018-09-20 13:00:00
UTC Time2018-09-20 14:55:27
Flight Rules Old
WindVRB at 03 kt
Visibility9999 m
Phenomena:N/A
Clouds:N/A
Expected CloudBase > 7,200 ft AGL from Temp-Dew spread
CeilingNone
Temp29°C (ISA +18)
Dew Point11°C (33% RH)
Heat Index28.1°C
AAT28.3°C
QNH1020 hPa
Density Alt3,885 ft
Elevation1,903 ft
Report Wrong Elevation
Raw Report
METAR LFCR 201300Z AUTO VRB03KT CAVOK 29/11 Q1020 NOSIG=

Extra information for LFCR:More info

Metar Taf Metar & Taf Last 4 Metars F.Rules Stats Wind Profile Meteogram Temp Stats Airport Information Weather charts Add Link Nearby VenuesMetar ALERT Operation Metar Decoded Social comments